createdAt,value
2023-04-21T00:01:30.260Z,2.32
2023-04-21T00:03:57.665Z,2.28
2023-04-21T00:06:24.496Z,2.29
2023-04-21T00:08:51.241Z,2.30
2023-04-21T00:11:18.158Z,2.32
2023-04-21T00:13:45.019Z,2.32
2023-04-21T00:16:11.835Z,2.33
2023-04-21T00:18:38.660Z,2.38
2023-04-21T00:21:05.521Z,2.43
2023-04-21T00:23:32.327Z,2.57
2023-04-21T00:26:02.935Z,2.65
2023-04-21T00:28:30.235Z,2.77
2023-04-21T00:30:57.104Z,2.84
2023-04-21T00:33:23.890Z,2.84
2023-04-21T00:35:50.695Z,2.85
2023-04-21T00:38:17.364Z,2.84
2023-04-21T00:40:44.131Z,2.84
2023-04-21T00:43:10.953Z,2.81
2023-04-21T00:45:37.704Z,2.77
2023-04-21T00:48:04.480Z,2.75
2023-04-21T00:50:31.331Z,2.72
2023-04-21T00:52:58.132Z,2.72
2023-04-21T00:55:24.862Z,2.71
2023-04-21T00:57:52.369Z,2.76
2023-04-21T01:00:19.244Z,2.76
2023-04-21T01:02:46.078Z,2.66
2023-04-21T01:05:13.184Z,2.65
2023-04-21T01:07:39.929Z,2.64
2023-04-21T01:10:07.228Z,2.62
2023-04-21T01:12:35.779Z,2.57
2023-04-21T01:15:02.572Z,2.58
2023-04-21T01:17:30.461Z,2.61
2023-04-21T01:19:57.641Z,2.59
2023-04-21T01:22:24.665Z,2.53
2023-04-21T01:24:51.966Z,2.54
2023-04-21T01:27:19.917Z,2.57
2023-04-21T01:29:47.193Z,2.61
2023-04-21T01:32:15.026Z,2.64
2023-04-21T01:34:41.805Z,2.68
2023-04-21T01:37:09.954Z,2.72
2023-04-21T01:39:44.092Z,2.74
2023-04-21T01:42:11.377Z,2.76
2023-04-21T01:44:38.208Z,2.78
2023-04-21T01:47:05.031Z,2.80
2023-04-21T01:49:32.029Z,2.73
2023-04-21T01:51:58.786Z,2.65
2023-04-21T01:54:25.526Z,2.63
2023-04-21T01:56:52.403Z,2.65
2023-04-21T01:59:19.577Z,2.71
2023-04-21T02:01:46.836Z,2.71
2023-04-21T02:04:13.820Z,2.80
2023-04-21T02:06:40.822Z,2.92
2023-04-21T02:09:07.707Z,2.99
2023-04-21T02:11:34.401Z,3.01
2023-04-21T02:14:01.169Z,3.03
2023-04-21T02:16:28.118Z,3.05
2023-04-21T02:18:55.185Z,3.03
2023-04-21T02:21:21.900Z,3.07
2023-04-21T02:23:48.658Z,3.02
2023-04-21T02:26:15.866Z,2.96
2023-04-21T02:28:42.697Z,2.81
2023-04-21T02:31:09.428Z,2.64
2023-04-21T02:33:36.237Z,2.43
2023-04-21T02:36:03.320Z,2.31
2023-04-21T02:38:30.707Z,2.20
2023-04-21T02:40:57.900Z,2.16
2023-04-21T02:43:24.851Z,2.10
2023-04-21T02:45:51.998Z,2.06
2023-04-21T02:48:23.440Z,2.00
2023-04-21T02:50:50.885Z,1.98
2023-04-21T02:53:17.569Z,1.99
2023-04-21T02:55:44.511Z,2.04
2023-04-21T02:58:11.295Z,2.03
2023-04-21T03:00:38.146Z,1.99
2023-04-21T03:03:05.213Z,2.00
2023-04-21T03:05:32.422Z,1.96
2023-04-21T03:07:59.069Z,1.96
2023-04-21T03:10:25.920Z,1.90
2023-04-21T03:12:53.159Z,1.87
2023-04-21T03:15:20.293Z,1.92
2023-04-21T03:17:47.037Z,2.00
2023-04-21T03:20:13.748Z,2.07
2023-04-21T03:22:40.532Z,2.12
2023-04-21T03:25:07.822Z,2.17
2023-04-21T03:27:34.895Z,2.23
2023-04-21T03:30:01.578Z,2.25
2023-04-21T03:32:28.593Z,2.29
2023-04-21T03:34:55.510Z,2.31
2023-04-21T03:37:22.198Z,2.31
2023-04-21T03:39:48.896Z,2.32
2023-04-21T03:42:15.572Z,2.36
2023-04-21T03:44:42.258Z,2.41
2023-04-21T03:47:08.892Z,2.44
2023-04-21T03:49:35.654Z,2.42
2023-04-21T03:52:02.466Z,2.47
2023-04-21T03:54:29.220Z,2.54
2023-04-21T03:56:56.110Z,2.58
2023-04-21T03:59:22.940Z,2.65
2023-04-21T04:01:49.616Z,2.68
2023-04-21T04:04:16.742Z,2.68
2023-04-21T04:06:43.869Z,2.68
2023-04-21T04:09:10.603Z,2.64
2023-04-21T04:11:37.305Z,2.59
2023-04-21T04:14:04.112Z,2.53
2023-04-21T04:16:31.196Z,2.50
2023-04-21T04:18:58.288Z,2.53
2023-04-21T04:21:25.798Z,2.55
2023-04-21T04:23:52.526Z,2.59
2023-04-21T04:26:19.420Z,2.60
2023-04-21T04:28:46.456Z,2.57
2023-04-21T04:31:14.000Z,2.63
2023-04-21T04:33:42.795Z,2.72
2023-04-21T04:36:09.685Z,2.82
2023-04-21T04:38:37.679Z,2.85
2023-04-21T04:41:04.948Z,2.86
2023-04-21T04:43:33.929Z,2.89
2023-04-21T04:46:01.622Z,2.91
2023-04-21T04:48:28.471Z,2.84
2023-04-21T04:50:55.379Z,2.85
2023-04-21T04:53:22.153Z,2.88
2023-04-21T04:55:48.902Z,2.89
2023-04-21T04:58:15.779Z,2.93
2023-04-21T05:00:42.625Z,3.00
2023-04-21T05:03:09.848Z,3.02
2023-04-21T05:05:37.341Z,3.09
2023-04-21T05:08:04.081Z,3.08
2023-04-21T05:10:30.763Z,3.07
2023-04-21T05:12:58.094Z,3.11
2023-04-21T05:15:24.843Z,3.12
2023-04-21T05:17:51.636Z,3.19
2023-04-21T05:20:18.436Z,3.26
2023-04-21T05:22:45.307Z,3.23
2023-04-21T05:25:15.884Z,3.23
2023-04-21T05:27:43.191Z,3.40
2023-04-21T05:30:10.337Z,3.49
2023-04-21T05:32:37.116Z,3.48
2023-04-21T05:35:04.293Z,3.48
2023-04-21T05:37:31.079Z,3.49
2023-04-21T05:39:57.821Z,3.51
2023-04-21T05:42:24.587Z,3.54
2023-04-21T05:44:51.360Z,3.68
2023-04-21T05:47:17.980Z,3.70
2023-04-21T05:49:50.537Z,3.67
2023-04-21T05:52:21.084Z,3.61
2023-04-21T05:54:47.806Z,3.64
2023-04-21T05:57:14.579Z,3.68
2023-04-21T05:59:41.291Z,3.68
2023-04-21T06:02:08.082Z,3.80
2023-04-21T06:07:57.858Z,4.52
2023-04-21T06:30:04.384Z,5.08
2023-04-21T06:32:31.478Z,5.13
2023-04-21T06:34:58.088Z,5.12
2023-04-21T06:37:24.796Z,5.07
2023-04-21T06:39:51.522Z,5.03
2023-04-21T06:42:18.301Z,5.01
2023-04-21T06:44:44.977Z,5.16
2023-04-21T06:47:11.841Z,5.29
2023-04-21T06:49:38.721Z,5.52
2023-04-21T06:52:06.027Z,5.70
2023-04-21T06:54:32.762Z,5.81
2023-04-21T06:56:59.372Z,5.78
2023-04-21T06:59:26.171Z,5.75
2023-04-21T07:01:53.074Z,5.71
2023-04-21T07:04:20.024Z,5.57
2023-04-21T07:06:46.966Z,5.49
2023-04-21T07:09:13.679Z,5.46
2023-04-21T07:11:40.326Z,5.82
2023-04-21T07:14:07.076Z,6.26
2023-04-21T07:16:33.708Z,6.77
2023-04-21T07:19:01.002Z,7.19
2023-04-21T07:21:27.803Z,7.28
2023-04-21T07:23:54.551Z,7.42
2023-04-21T07:26:21.383Z,7.62
2023-04-21T07:28:49.846Z,7.73
2023-04-21T07:31:16.721Z,7.78
2023-04-21T07:33:43.474Z,7.92
2023-04-21T07:36:10.252Z,7.90
2023-04-21T07:38:38.698Z,8.02
2023-04-21T07:41:05.492Z,8.24
2023-04-21T07:43:32.193Z,8.66
2023-04-21T07:45:59.039Z,9.51
2023-04-21T07:48:25.620Z,11.12
2023-04-21T07:50:53.591Z,12.45
2023-04-21T07:53:20.285Z,14.64
2023-04-21T07:55:46.974Z,18.83
2023-04-21T07:58:14.398Z,21.41
2023-04-21T08:00:41.562Z,22.91
2023-04-21T08:03:08.598Z,24.48
2023-04-21T08:05:37.849Z,27.30
2023-04-21T08:08:07.479Z,29.94
2023-04-21T08:10:34.189Z,31.97
2023-04-21T08:13:00.954Z,31.53
2023-04-21T08:15:27.728Z,30.69
2023-04-21T08:17:55.352Z,28.95
2023-04-21T08:20:22.132Z,26.32
2023-04-21T08:22:48.821Z,25.61
2023-04-21T08:25:15.456Z,27.37
2023-04-21T08:27:44.164Z,28.40
2023-04-21T08:30:11.166Z,29.72
2023-04-21T08:32:38.079Z,30.92
2023-04-21T08:35:05.207Z,31.71
2023-04-21T08:37:32.009Z,32.80
2023-04-21T08:39:58.673Z,32.73
2023-04-21T08:42:25.420Z,32.13
2023-04-21T08:44:52.929Z,32.48
2023-04-21T08:47:20.805Z,33.44
2023-04-21T08:49:47.659Z,34.29
2023-04-21T08:52:14.911Z,34.97
2023-04-21T08:54:41.563Z,34.32
2023-04-21T08:57:15.317Z,31.06
2023-04-21T08:59:43.268Z,28.48
2023-04-21T09:02:10.183Z,26.59
2023-04-21T09:04:40.978Z,27.28
2023-04-21T09:07:09.001Z,29.35
2023-04-21T09:10:08.194Z,28.93
2023-04-21T09:12:34.961Z,30.81
2023-04-21T09:15:05.129Z,31.42
2023-04-21T09:17:37.180Z,29.20
2023-04-21T09:20:14.782Z,26.90
2023-04-21T09:22:41.667Z,25.67
2023-04-21T09:25:08.800Z,24.50
2023-04-21T09:27:38.326Z,24.23
2023-04-21T09:30:06.966Z,23.94
2023-04-21T09:32:38.222Z,22.47
2023-04-21T09:35:06.755Z,21.29
2023-04-21T09:37:36.268Z,20.55
2023-04-21T09:40:04.657Z,19.59
2023-04-21T09:42:32.272Z,19.14
2023-04-21T09:45:16.444Z,18.79
2023-04-21T09:47:46.134Z,18.69
2023-04-21T09:50:13.413Z,18.19
2023-04-21T09:52:40.537Z,17.94
2023-04-21T09:55:09.182Z,17.51
2023-04-21T09:57:35.960Z,16.34
2023-04-21T10:00:05.801Z,15.72
2023-04-21T10:02:32.756Z,15.26
2023-04-21T10:04:59.918Z,14.82
2023-04-21T10:07:27.172Z,14.55
2023-04-21T10:09:57.126Z,14.28
2023-04-21T10:12:24.303Z,14.19
2023-04-21T10:14:54.503Z,14.40
2023-04-21T10:17:25.184Z,14.75
2023-04-21T10:19:53.259Z,15.18
2023-04-21T10:22:32.957Z,15.92
2023-04-21T10:25:03.336Z,16.31
2023-04-21T10:27:36.801Z,16.66
2023-04-21T10:30:23.769Z,16.77
2023-04-21T10:33:02.420Z,16.15
2023-04-21T10:35:49.113Z,15.52
2023-04-21T10:38:33.557Z,14.97
2023-04-21T10:41:19.017Z,14.14
2023-04-21T10:43:48.449Z,13.34
2023-04-21T10:46:33.520Z,12.92
2023-04-21T10:49:06.658Z,12.63
2023-04-21T10:51:33.365Z,12.19
2023-04-21T10:54:00.005Z,11.79
2023-04-21T10:56:26.674Z,11.42
2023-04-21T10:58:53.740Z,11.27
2023-04-21T11:01:20.647Z,11.03
2023-04-21T11:03:47.637Z,10.76
2023-04-21T11:06:16.077Z,10.48
2023-04-21T11:08:55.601Z,10.23
2023-04-21T11:11:26.739Z,9.97
2023-04-21T11:13:53.436Z,9.71
2023-04-21T11:16:20.896Z,9.58
2023-04-21T11:18:48.227Z,9.50
2023-04-21T11:21:18.687Z,9.59
2023-04-21T11:23:52.661Z,9.82
2023-04-21T11:26:20.639Z,9.94
2023-04-21T11:28:50.183Z,9.97
2023-04-21T11:31:17.021Z,10.02
2023-04-21T11:33:43.831Z,10.24
2023-04-21T11:36:10.596Z,10.60
2023-04-21T11:38:39.164Z,10.92
2023-04-21T11:41:06.066Z,11.25
2023-04-21T11:43:32.839Z,11.77
2023-04-21T11:46:37.340Z,12.22
2023-04-21T11:49:04.772Z,12.61
2023-04-21T11:51:38.951Z,12.77
2023-04-21T11:54:06.487Z,12.90
2023-04-21T11:56:40.096Z,12.90
2023-04-21T11:59:16.416Z,12.85
2023-04-21T12:01:43.827Z,12.65
2023-04-21T12:04:13.977Z,12.27
2023-04-21T12:06:40.847Z,12.00
2023-04-21T12:09:07.589Z,11.68
2023-04-21T12:11:34.377Z,11.40
2023-04-21T12:14:01.371Z,11.23
2023-04-21T12:16:28.929Z,11.30
2023-04-21T12:18:56.631Z,11.70
2023-04-21T12:21:27.290Z,12.21
2023-04-21T12:23:55.481Z,12.91
2023-04-21T12:26:24.045Z,13.51
2023-04-21T12:28:51.053Z,13.87
2023-04-21T12:31:18.922Z,14.40
2023-04-21T12:33:45.824Z,14.69
2023-04-21T12:36:12.639Z,15.06
2023-04-21T12:38:39.591Z,15.41
2023-04-21T12:41:06.260Z,15.85
2023-04-21T12:43:32.973Z,16.27
2023-04-21T12:46:00.122Z,16.61
2023-04-21T12:48:27.011Z,16.88
2023-04-21T12:50:53.937Z,17.17
2023-04-21T12:53:20.768Z,17.46
2023-04-21T12:55:57.272Z,17.70
2023-04-21T12:58:27.986Z,17.74
2023-04-21T13:00:55.643Z,17.90
2023-04-21T13:03:22.815Z,18.02
2023-04-21T13:05:50.101Z,17.96
2023-04-21T13:08:16.865Z,17.92
2023-04-21T13:10:44.541Z,17.43
2023-04-21T13:13:11.385Z,17.29
2023-04-21T13:15:38.069Z,17.22
2023-04-21T13:18:04.854Z,17.48
2023-04-21T13:20:31.488Z,17.50
2023-04-21T13:22:58.166Z,17.67
2023-04-21T13:25:24.818Z,17.64
2023-04-21T13:27:53.347Z,17.30
2023-04-21T13:30:20.595Z,17.27
2023-04-21T13:32:49.206Z,17.35
2023-04-21T13:35:16.109Z,16.91
2023-04-21T13:37:42.762Z,16.79
2023-04-21T13:40:10.348Z,16.72
2023-04-21T13:42:38.942Z,16.72
2023-04-21T13:45:05.943Z,16.68
2023-04-21T13:47:33.157Z,16.60
2023-04-21T13:50:01.119Z,16.63
2023-04-21T13:52:27.759Z,16.66
2023-04-21T13:54:54.706Z,16.48
2023-04-21T13:57:21.481Z,16.52
2023-04-21T13:59:48.211Z,16.38
2023-04-21T14:02:15.112Z,16.24
2023-04-21T14:04:42.271Z,16.36
2023-04-21T14:07:09.632Z,16.10
2023-04-21T14:09:36.481Z,16.00
2023-04-21T14:12:03.833Z,15.89
2023-04-21T14:14:38.733Z,15.83
2023-04-21T14:17:07.050Z,15.63
2023-04-21T14:19:34.720Z,15.34
2023-04-21T14:22:02.076Z,15.24
2023-04-21T14:24:30.505Z,15.18
2023-04-21T14:26:57.670Z,15.35
2023-04-21T14:29:24.423Z,15.46
2023-04-21T14:31:51.834Z,15.50
2023-04-21T14:34:18.586Z,15.51
2023-04-21T14:36:47.766Z,15.47
2023-04-21T14:39:14.502Z,15.49
2023-04-21T14:41:41.228Z,15.47
2023-04-21T14:44:07.898Z,15.31
2023-04-21T14:46:34.888Z,15.41
2023-04-21T14:49:01.750Z,15.54
2023-04-21T14:51:28.491Z,15.51
2023-04-21T14:53:55.400Z,15.59
2023-04-21T14:56:22.093Z,15.72
2023-04-21T14:58:48.981Z,15.75
2023-04-21T15:01:16.018Z,15.62
2023-04-21T15:03:43.024Z,15.46
2023-04-21T15:06:10.059Z,15.51
2023-04-21T15:08:36.846Z,15.46
2023-04-21T15:11:03.746Z,15.42
2023-04-21T15:13:30.592Z,15.30
2023-04-21T15:15:57.527Z,15.22
2023-04-21T15:18:24.331Z,15.14
2023-04-21T15:20:50.987Z,15.09
2023-04-21T15:23:17.667Z,15.08
2023-04-21T15:25:44.401Z,15.11
2023-04-21T15:28:13.201Z,15.11
2023-04-21T15:30:40.054Z,15.06
2023-04-21T15:33:06.972Z,15.01
2023-04-21T15:35:33.804Z,15.01
2023-04-21T15:38:00.704Z,14.93
2023-04-21T15:40:27.620Z,14.94
2023-04-21T15:42:54.325Z,14.89
2023-04-21T15:45:21.014Z,14.80
2023-04-21T15:47:47.842Z,14.63
2023-04-21T15:50:15.472Z,14.52
2023-04-21T15:52:43.682Z,14.27
2023-04-21T15:55:14.128Z,14.10
2023-04-21T15:57:41.528Z,13.89
2023-04-21T16:00:10.658Z,13.77
2023-04-21T16:02:38.036Z,13.71
2023-04-21T16:05:05.494Z,13.65
2023-04-21T16:07:32.458Z,13.71
2023-04-21T16:09:59.213Z,13.70
2023-04-21T16:12:26.019Z,13.59
2023-04-21T16:14:59.618Z,13.43
2023-04-21T16:17:32.350Z,13.37
2023-04-21T16:19:59.271Z,13.25
2023-04-21T16:22:25.960Z,13.18
2023-04-21T16:24:53.417Z,13.09
2023-04-21T16:27:20.467Z,13.01
2023-04-21T16:29:47.418Z,12.87
2023-04-21T16:32:14.224Z,12.75
2023-04-21T16:34:41.798Z,12.65
2023-04-21T16:37:09.011Z,12.66
2023-04-21T16:39:35.993Z,12.68
2023-04-21T16:42:02.990Z,12.65
2023-04-21T16:44:29.731Z,12.60
2023-04-21T16:46:56.940Z,12.54
2023-04-21T16:49:23.665Z,12.53
2023-04-21T16:51:50.449Z,12.49
2023-04-21T16:54:17.147Z,12.41
2023-04-21T16:56:44.685Z,12.30
2023-04-21T16:59:11.313Z,12.28
2023-04-21T17:01:38.647Z,12.31
2023-04-21T17:04:05.473Z,12.29
2023-04-21T17:06:32.226Z,12.24
2023-04-21T17:09:01.887Z,12.10
2023-04-21T17:11:30.320Z,11.91
2023-04-21T17:13:57.003Z,11.80
2023-04-21T17:16:23.777Z,11.77
2023-04-21T17:18:50.616Z,11.72
2023-04-21T17:21:17.316Z,11.66
2023-04-21T17:23:44.220Z,11.60
2023-04-21T17:26:12.401Z,11.51
2023-04-21T17:28:40.035Z,11.44
2023-04-21T17:31:14.334Z,11.39
2023-04-21T17:33:42.993Z,11.36
2023-04-21T17:36:09.791Z,11.31
2023-04-21T17:38:36.489Z,11.26
2023-04-21T17:41:05.015Z,11.22
2023-04-21T17:43:31.776Z,11.16
2023-04-21T17:45:58.534Z,11.10
2023-04-21T17:48:25.266Z,11.05
2023-04-21T17:50:51.971Z,10.98
2023-04-21T17:53:19.076Z,10.91
2023-04-21T17:55:45.905Z,10.87
2023-04-21T17:58:12.791Z,10.84
2023-04-21T18:03:06.760Z,10.72
2023-04-21T18:05:33.955Z,10.63
2023-04-21T18:08:01.021Z,10.56
2023-04-21T18:10:29.756Z,10.50
2023-04-21T18:12:56.917Z,10.41
2023-04-21T18:15:23.671Z,10.30
2023-04-21T18:17:50.573Z,10.25
2023-04-21T18:20:17.249Z,10.15
2023-04-21T18:22:44.052Z,10.07
2023-04-21T18:25:12.232Z,9.98
2023-04-21T18:27:39.587Z,9.89
2023-04-21T18:30:06.631Z,9.83
2023-04-21T18:32:36.161Z,9.74
2023-04-21T18:35:03.216Z,9.64
2023-04-21T18:37:29.827Z,9.53
2023-04-21T18:39:56.617Z,9.40
2023-04-21T18:42:23.578Z,9.27
2023-04-21T18:44:50.256Z,9.16
2023-04-21T18:47:17.083Z,9.05
2023-04-21T18:49:45.565Z,8.97
2023-04-21T18:52:13.331Z,8.88
2023-04-21T18:54:40.184Z,8.80
2023-04-21T18:57:08.382Z,8.77
2023-04-21T18:59:35.675Z,8.74
2023-04-21T19:02:04.526Z,8.69
2023-04-21T19:04:31.726Z,8.63
2023-04-21T19:06:58.457Z,8.53
2023-04-21T19:09:27.406Z,8.42
2023-04-21T19:11:54.087Z,8.43
2023-04-21T19:14:20.858Z,8.30
2023-04-21T19:16:49.093Z,8.14
2023-04-21T19:19:16.049Z,8.13
2023-04-21T19:21:43.231Z,8.13
2023-04-21T19:24:10.104Z,8.07
2023-04-21T19:26:36.996Z,8.07
2023-04-21T19:29:05.232Z,8.05
2023-04-21T19:31:32.027Z,8.02
2023-04-21T19:33:58.798Z,7.94
2023-04-21T19:36:25.486Z,7.84
2023-04-21T19:38:52.229Z,7.73
2023-04-21T19:41:18.936Z,7.63
2023-04-21T19:43:45.625Z,7.60
2023-04-21T19:46:12.501Z,7.57
2023-04-21T19:48:41.394Z,7.54
2023-04-21T19:51:09.485Z,7.54
2023-04-21T19:53:36.203Z,7.51
2023-04-21T19:56:02.859Z,7.47
2023-04-21T19:58:39.328Z,7.46
2023-04-21T20:01:07.264Z,7.45
2023-04-21T20:03:34.443Z,7.39
2023-04-21T20:06:01.995Z,7.31
2023-04-21T20:08:29.532Z,7.26
2023-04-21T20:10:56.306Z,7.27
2023-04-21T20:13:22.992Z,7.27
2023-04-21T20:15:49.733Z,7.22
2023-04-21T20:18:16.561Z,7.24
2023-04-21T20:20:43.231Z,7.29
2023-04-21T20:23:09.898Z,7.27
2023-04-21T20:25:36.713Z,7.15
2023-04-21T20:28:03.467Z,7.13
2023-04-21T20:30:30.253Z,7.13
2023-04-21T20:32:57.040Z,7.13
2023-04-21T20:35:23.874Z,7.15
2023-04-21T20:37:50.692Z,7.11
2023-04-21T20:40:18.982Z,7.08
2023-04-21T20:42:45.819Z,7.06
2023-04-21T20:45:13.059Z,7.03
2023-04-21T20:47:39.819Z,7.04
2023-04-21T20:50:07.582Z,7.05
2023-04-21T20:52:34.548Z,7.05
2023-04-21T20:55:01.293Z,7.07
2023-04-21T20:57:27.984Z,7.07
2023-04-21T20:59:54.806Z,7.07
2023-04-21T21:02:21.723Z,7.06
2023-04-21T21:04:48.569Z,7.06
2023-04-21T21:07:15.514Z,7.03
2023-04-21T21:09:42.166Z,7.04
2023-04-21T21:12:08.913Z,7.00
2023-04-21T21:14:35.734Z,6.91
2023-04-21T21:17:03.166Z,6.82
2023-04-21T21:19:30.178Z,6.75
2023-04-21T21:21:57.234Z,6.66
2023-04-21T21:24:26.600Z,6.59
2023-04-21T21:26:53.365Z,6.55
2023-04-21T21:29:20.245Z,6.55
2023-04-21T21:31:46.950Z,6.51
2023-04-21T21:34:13.828Z,6.47
2023-04-21T21:36:40.535Z,6.41
2023-04-21T21:39:09.592Z,6.39
2023-04-21T21:41:37.813Z,6.36
2023-04-21T21:44:04.578Z,6.35
2023-04-21T21:46:31.516Z,6.32
2023-04-21T21:48:58.281Z,6.28
2023-04-21T21:51:25.494Z,6.26
2023-04-21T21:53:52.374Z,6.23
2023-04-21T21:56:19.096Z,6.22
2023-04-21T21:58:45.865Z,6.17
2023-04-21T22:01:15.491Z,6.14
2023-04-21T22:03:42.607Z,6.08
2023-04-21T22:06:09.546Z,5.94
2023-04-21T22:08:36.222Z,5.81
2023-04-21T22:11:04.119Z,5.73
2023-04-21T22:13:30.715Z,5.66
2023-04-21T22:15:57.443Z,5.60
2023-04-21T22:18:24.270Z,5.55
2023-04-21T22:20:51.016Z,5.51
2023-04-21T22:23:20.120Z,5.50
2023-04-21T22:25:46.945Z,5.45
2023-04-21T22:28:13.551Z,5.44
2023-04-21T22:30:40.203Z,5.45
2023-04-21T22:33:06.955Z,5.45
2023-04-21T22:35:33.651Z,5.47
2023-04-21T22:38:00.362Z,5.50
2023-04-21T22:40:27.182Z,5.52
2023-04-21T22:42:54.216Z,5.55
2023-04-21T22:45:21.230Z,5.48
2023-04-21T22:47:49.636Z,5.46
2023-04-21T22:50:16.374Z,5.42
2023-04-21T22:52:43.383Z,5.38
2023-04-21T22:55:10.497Z,5.35
2023-04-21T22:57:40.196Z,5.33
2023-04-21T23:00:08.083Z,5.31
2023-04-21T23:02:35.089Z,5.29
2023-04-21T23:05:02.284Z,5.25
2023-04-21T23:07:29.140Z,5.16
2023-04-21T23:09:55.826Z,4.94
2023-04-21T23:12:22.677Z,4.83
2023-04-21T23:14:49.429Z,4.76
2023-04-21T23:17:16.091Z,4.71
2023-04-21T23:19:42.691Z,4.67
2023-04-21T23:22:09.446Z,4.61
2023-04-21T23:24:36.222Z,4.54
2023-04-21T23:27:02.968Z,4.52
2023-04-21T23:29:29.699Z,4.49
2023-04-21T23:31:56.713Z,4.49
2023-04-21T23:34:23.342Z,4.45
2023-04-21T23:36:50.088Z,4.41
2023-04-21T23:39:18.288Z,4.38
2023-04-21T23:41:45.000Z,4.35
2023-04-21T23:44:11.889Z,4.30
2023-04-21T23:46:38.846Z,4.31
2023-04-21T23:49:05.666Z,4.26
2023-04-21T23:51:33.888Z,4.25
2023-04-21T23:54:01.826Z,4.20
2023-04-21T23:56:28.688Z,4.17
2023-04-21T23:58:58.626Z,4.13
